sensor_id;sensor_type;location;lat;lon;timestamp;pressure;altitude;pressure_sealevel;temperature;humidity
72116;BME280;59991;52.140;5.428;2022-08-03T00:00:21;101543.63;;;20.51;73.39
72116;BME280;59991;52.140;5.428;2022-08-03T00:01:14;101547.16;;;20.51;73.17
72116;BME280;59991;52.140;5.428;2022-08-03T00:01:46;101549.94;;;20.51;72.84
72116;BME280;59991;52.140;5.428;2022-08-03T00:02:17;101545.59;;;20.50;72.68
72116;BME280;59991;52.140;5.428;2022-08-03T00:02:49;101551.16;;;20.50;73.05
72116;BME280;59991;52.140;5.428;2022-08-03T00:03:21;101551.16;;;20.50;72.65
72116;BME280;59991;52.140;5.428;2022-08-03T00:03:52;101552.72;;;20.51;73.02
72116;BME280;59991;52.140;5.428;2022-08-03T00:04:24;101541.28;;;20.49;73.12
72116;BME280;59991;52.140;5.428;2022-08-03T00:05:05;101545.25;;;20.48;72.94
72116;BME280;59991;52.140;5.428;2022-08-03T00:05:38;101545.25;;;20.48;73.21
72116;BME280;59991;52.140;5.428;2022-08-03T00:06:30;101550.00;;;20.48;73.14
72116;BME280;59991;52.140;5.428;2022-08-03T00:07:07;101550.00;;;20.48;73.34
72116;BME280;59991;52.140;5.428;2022-08-03T00:07:38;101552.00;;;20.47;72.65
72116;BME280;59991;52.140;5.428;2022-08-03T00:08:11;101543.25;;;20.49;73.13
72116;BME280;59991;52.140;5.428;2022-08-03T00:08:42;101544.03;;;20.49;73.44
72116;BME280;59991;52.140;5.428;2022-08-03T00:09:14;101550.78;;;20.48;72.62
72116;BME280;59991;52.140;5.428;2022-08-03T00:09:45;101554.34;;;20.49;72.82
72116;BME280;59991;52.140;5.428;2022-08-03T00:10:16;101552.78;;;20.48;73.78
72116;BME280;59991;52.140;5.428;2022-08-03T00:10:48;101548.44;;;20.47;73.35
72116;BME280;59991;52.140;5.428;2022-08-03T00:12:11;101548.88;;;20.45;73.41
72116;BME280;59991;52.140;5.428;2022-08-03T00:12:42;101546.88;;;20.46;73.38
72116;BME280;59991;52.140;5.428;2022-08-03T00:13:14;101540.56;;;20.45;73.41
72116;BME280;59991;52.140;5.428;2022-08-03T00:13:45;101541.78;;;20.44;72.93
72116;BME280;59991;52.140;5.428;2022-08-03T00:14:17;101543.34;;;20.45;72.83
72116;BME280;59991;52.140;5.428;2022-08-03T00:14:48;101538.56;;;20.46;72.59
72116;BME280;59991;52.140;5.428;2022-08-03T00:15:19;101544.91;;;20.46;73.23
72116;BME280;59991;52.140;5.428;2022-08-03T00:16:59;101543.34;;;20.45;72.85
72116;BME280;59991;52.140;5.428;2022-08-03T00:17:30;101541.78;;;20.44;73.66
72116;BME280;59991;52.140;5.428;2022-08-03T00:18:22;101541.41;;;20.42;73.24
72116;BME280;59991;52.140;5.428;2022-08-03T00:18:53;101541.41;;;20.42;73.43
72116;BME280;59991;52.140;5.428;2022-08-03T00:19:24;101538.66;;;20.42;72.79
72116;BME280;59991;52.140;5.428;2022-08-03T00:19:56;101542.97;;;20.43;73.64
72116;BME280;59991;52.140;5.428;2022-08-03T00:20:27;101540.63;;;20.42;73.37
72116;BME280;59991;52.140;5.428;2022-08-03T00:20:58;101546.97;;;20.42;72.77
72116;BME280;59991;52.140;5.428;2022-08-03T00:21:30;101543.41;;;20.42;73.44
72116;BME280;59991;52.140;5.428;2022-08-03T00:22:01;101537.88;;;20.42;73.13
72116;BME280;59991;52.140;5.428;2022-08-03T00:22:54;101539.44;;;20.43;73.62
72116;BME280;59991;52.140;5.428;2022-08-03T00:23:25;101539.44;;;20.43;73.58
72116;BME280;59991;52.140;5.428;2022-08-03T00:24:17;101542.97;;;20.43;73.61
72116;BME280;59991;52.140;5.428;2022-08-03T00:24:48;101544.97;;;20.43;73.74
72116;BME280;59991;52.140;5.428;2022-08-03T00:25:19;101545.41;;;20.41;73.11
72116;BME280;59991;52.140;5.428;2022-08-03T00:25:51;101542.63;;;20.41;74.07
72116;BME280;59991;52.140;5.428;2022-08-03T00:26:22;101548.63;;;20.40;73.52
72116;BME280;59991;52.140;5.428;2022-08-03T00:26:54;101537.19;;;20.38;73.03
72116;BME280;59991;52.140;5.428;2022-08-03T00:27:25;101547.06;;;20.39;72.99
72116;BME280;59991;52.140;5.428;2022-08-03T00:27:56;101541.50;;;20.39;73.56
72116;BME280;59991;52.140;5.428;2022-08-03T00:28:28;101539.16;;;20.37;73.28
72116;BME280;59991;52.140;5.428;2022-08-03T00:28:59;101535.19;;;20.38;73.47
72116;BME280;59991;52.140;5.428;2022-08-03T00:30:39;101543.13;;;20.36;73.84
72116;BME280;59991;52.140;5.428;2022-08-03T00:31:12;101543.94;;;20.37;73.86
72116;BME280;59991;52.140;5.428;2022-08-03T00:31:44;101543.13;;;20.36;73.53
72116;BME280;59991;52.140;5.428;2022-08-03T00:32:23;101541.94;;;20.37;73.19
72116;BME280;59991;52.140;5.428;2022-08-03T00:32:55;101543.94;;;20.37;73.65
72116;BME280;59991;52.140;5.428;2022-08-03T00:33:26;101540.34;;;20.36;73.51
72116;BME280;59991;52.140;5.428;2022-08-03T00:34:18;101541.16;;;20.37;72.74
72116;BME280;59991;52.140;5.428;2022-08-03T00:35:07;101543.53;;;20.34;73.58
72116;BME280;59991;52.140;5.428;2022-08-03T00:35:48;101541.19;;;20.33;73.46
72116;BME280;59991;52.140;5.428;2022-08-03T00:36:21;101540.06;;;20.30;73.16
72116;BME280;59991;52.140;5.428;2022-08-03T00:36:52;101542.81;;;20.30;73.68
72116;BME280;59991;52.140;5.428;2022-08-03T00:37:24;101542.47;;;20.28;73.13
72116;BME280;59991;52.140;5.428;2022-08-03T00:38:12;101538.91;;;20.28;73.14
72116;BME280;59991;52.140;5.428;2022-08-03T00:38:43;101536.50;;;20.30;73.08
72116;BME280;59991;52.140;5.428;2022-08-03T00:39:14;101538.50;;;20.29;72.81
72116;BME280;59991;52.140;5.428;2022-08-03T00:39:46;101536.50;;;20.30;73.33
72116;BME280;59991;52.140;5.428;2022-08-03T00:40:19;101542.03;;;20.30;73.93
72116;BME280;59991;52.140;5.428;2022-08-03T00:40:50;101536.50;;;20.30;73.27
72116;BME280;59991;52.140;5.428;2022-08-03T00:41:22;101535.72;;;20.29;72.88
72116;BME280;59991;52.140;5.428;2022-08-03T00:41:53;101534.94;;;20.29;73.38
72116;BME280;59991;52.140;5.428;2022-08-03T00:42:24;101538.91;;;20.28;72.54
72116;BME280;59991;52.140;5.428;2022-08-03T00:43:01;101538.91;;;20.28;73.06
72116;BME280;59991;52.140;5.428;2022-08-03T00:43:33;101535.38;;;20.27;73.79
72116;BME280;59991;52.140;5.428;2022-08-03T00:44:04;101534.16;;;20.28;73.81
72116;BME280;59991;52.140;5.428;2022-08-03T00:44:40;101539.34;;;20.26;73.69
72116;BME280;59991;52.140;5.428;2022-08-03T00:45:12;101539.78;;;20.25;73.70
72116;BME280;59991;52.140;5.428;2022-08-03T00:45:43;101539.00;;;20.24;74.30
72116;BME280;59991;52.140;5.428;2022-08-03T00:46:15;101538.63;;;20.22;74.21
72116;BME280;59991;52.140;5.428;2022-08-03T00:46:52;101537.06;;;20.21;73.98
72116;BME280;59991;52.140;5.428;2022-08-03T00:47:23;101537.53;;;20.20;73.60
72116;BME280;59991;52.140;5.428;2022-08-03T00:48:13;101532.31;;;20.22;73.96
72116;BME280;59991;52.140;5.428;2022-08-03T00:49:03;101543.06;;;20.20;73.99
72116;BME280;59991;52.140;5.428;2022-08-03T00:49:35;101535.53;;;20.20;73.65
72116;BME280;59991;52.140;5.428;2022-08-03T00:50:07;101531.97;;;20.20;73.51
72116;BME280;59991;52.140;5.428;2022-08-03T00:50:58;101533.19;;;20.19;73.69
72116;BME280;59991;52.140;5.428;2022-08-03T00:52:09;101536.81;;;20.16;74.17
72116;BME280;59991;52.140;5.428;2022-08-03T00:52:41;101536.03;;;20.15;74.21
72116;BME280;59991;52.140;5.428;2022-08-03T00:53:13;101533.25;;;20.15;74.36
72116;BME280;59991;52.140;5.428;2022-08-03T00:54:36;101521.81;;;20.13;74.14
72116;BME280;59991;52.140;5.428;2022-08-03T00:55:09;101533.69;;;20.14;73.50
72116;BME280;59991;52.140;5.428;2022-08-03T00:55:40;101537.66;;;20.13;73.91
72116;BME280;59991;52.140;5.428;2022-08-03T00:56:16;101531.34;;;20.12;73.92
72116;BME280;59991;52.140;5.428;2022-08-03T00:56:48;101526.56;;;20.13;74.09
72116;BME280;59991;52.140;5.428;2022-08-03T00:57:31;101534.88;;;20.13;74.32
72116;BME280;59991;52.140;5.428;2022-08-03T00:58:03;101523.03;;;20.12;73.60
72116;BME280;59991;52.140;5.428;2022-08-03T00:58:36;101532.13;;;20.13;74.42
72116;BME280;59991;52.140;5.428;2022-08-03T00:59:09;101531.34;;;20.12;74.20
72116;BME280;59991;52.140;5.428;2022-08-03T00:59:40;101527.78;;;20.12;74.25
72116;BME280;59991;52.140;5.428;2022-08-03T01:00:14;101527.00;;;20.11;74.25
72116;BME280;59991;52.140;5.428;2022-08-03T01:00:46;101528.56;;;20.12;74.05
72116;BME280;59991;52.140;5.428;2022-08-03T01:01:18;101525.78;;;20.12;74.33
72116;BME280;59991;52.140;5.428;2022-08-03T01:01:49;101523.03;;;20.12;74.41
72116;BME280;59991;52.140;5.428;2022-08-03T01:02:21;101530.91;;;20.14;73.84
72116;BME280;59991;52.140;5.428;2022-08-03T01:02:53;101531.69;;;20.14;73.86
72116;BME280;59991;52.140;5.428;2022-08-03T01:03:24;101529.34;;;20.13;74.34
72116;BME280;59991;52.140;5.428;2022-08-03T01:03:55;101534.53;;;20.11;74.70
72116;BME280;59991;52.140;5.428;2022-08-03T01:04:27;101530.19;;;20.10;73.52
72116;BME280;59991;52.140;5.428;2022-08-03T01:05:18;101525.84;;;20.09;74.11
72116;BME280;59991;52.140;5.428;2022-08-03T01:06:23;101520.31;;;20.09;73.34
72116;BME280;59991;52.140;5.428;2022-08-03T01:08:26;101526.28;;;20.07;74.10
72116;BME280;59991;52.140;5.428;2022-08-03T01:09:08;101521.16;;;20.06;74.23
72116;BME280;59991;52.140;5.428;2022-08-03T01:10:53;101515.28;;;20.04;73.80
72116;BME280;59991;52.140;5.428;2022-08-03T01:11:36;101520.03;;;20.03;74.06
72116;BME280;59991;52.140;5.428;2022-08-03T01:12:37;101519.69;;;20.01;74.58
72116;BME280;59991;52.140;5.428;2022-08-03T01:14:18;101522.88;;;19.99;74.66
72116;BME280;59991;52.140;5.428;2022-08-03T01:14:58;101518.91;;;20.00;74.73
72116;BME280;59991;52.140;5.428;2022-08-03T01:15:45;101517.34;;;19.99;74.88
72116;BME280;59991;52.140;5.428;2022-08-03T01:16:30;101523.31;;;19.98;73.77
72116;BME280;59991;52.140;5.428;2022-08-03T01:17:13;101521.75;;;19.97;74.74
72116;BME280;59991;52.140;5.428;2022-08-03T01:17:54;101528.06;;;19.97;74.14
72116;BME280;59991;52.140;5.428;2022-08-03T01:20:13;101524.16;;;19.95;74.38
72116;BME280;59991;52.140;5.428;2022-08-03T01:20:47;101520.59;;;19.94;74.07
72116;BME280;59991;52.140;5.428;2022-08-03T01:21:25;101521.03;;;19.93;74.88
72116;BME280;59991;52.140;5.428;2022-08-03T01:22:31;101521.44;;;19.91;74.84
72116;BME280;59991;52.140;5.428;2022-08-03T01:23:26;101522.28;;;19.88;74.09
72116;BME280;59991;52.140;5.428;2022-08-03T01:24:12;101525.84;;;19.89;74.63
72116;BME280;59991;52.140;5.428;2022-08-03T01:26:36;101516.41;;;19.86;74.60
72116;BME280;59991;52.140;5.428;2022-08-03T01:27:28;101524.34;;;19.84;74.69
72116;BME280;59991;52.140;5.428;2022-08-03T01:29:00;101522.78;;;19.83;74.86
72116;BME280;59991;52.140;5.428;2022-08-03T01:29:40;101522.44;;;19.81;74.29
72116;BME280;59991;52.140;5.428;2022-08-03T01:30:19;101515.78;;;19.79;75.44
72116;BME280;59991;52.140;5.428;2022-08-03T01:31:10;101520.16;;;19.76;74.37
72116;BME280;59991;52.140;5.428;2022-08-03T01:31:47;101521.38;;;19.75;74.96
72116;BME280;59991;52.140;5.428;2022-08-03T01:33:19;101515.47;;;19.73;75.35
72116;BME280;59991;52.140;5.428;2022-08-03T01:33:56;101513.91;;;19.72;75.13
72116;BME280;59991;52.140;5.428;2022-08-03T01:34:34;101520.66;;;19.71;74.82
72116;BME280;59991;52.140;5.428;2022-08-03T01:35:21;101521.84;;;19.70;75.38
72116;BME280;59991;52.140;5.428;2022-08-03T01:35:59;101515.53;;;19.70;74.73
72116;BME280;59991;52.140;5.428;2022-08-03T01:36:35;101519.09;;;19.70;74.92
72116;BME280;59991;52.140;5.428;2022-08-03T01:37:09;101520.66;;;19.71;75.34
72116;BME280;59991;52.140;5.428;2022-08-03T01:37:55;101519.44;;;19.72;75.12
72116;BME280;59991;52.140;5.428;2022-08-03T01:38:33;101510.38;;;19.72;75.47
72116;BME280;59991;52.140;5.428;2022-08-03T01:39:06;101516.69;;;19.72;75.68
72116;BME280;59991;52.140;5.428;2022-08-03T01:39:41;101517.09;;;19.71;76.05
72116;BME280;59991;52.140;5.428;2022-08-03T01:40:15;101514.75;;;19.69;76.16
72116;BME280;59991;52.140;5.428;2022-08-03T01:40:49;101518.31;;;19.70;75.39
72116;BME280;59991;52.140;5.428;2022-08-03T01:41:29;101519.09;;;19.70;75.68
72116;BME280;59991;52.140;5.428;2022-08-03T01:42:03;101516.31;;;19.70;75.65
72116;BME280;59991;52.140;5.428;2022-08-03T01:42:37;101517.53;;;19.69;75.75
72116;BME280;59991;52.140;5.428;2022-08-03T01:43:15;101515.53;;;19.70;75.73
72116;BME280;59991;52.140;5.428;2022-08-03T01:44:09;101521.84;;;19.70;75.87
72116;BME280;59991;52.140;5.428;2022-08-03T01:45:01;101513.19;;;19.68;75.86
72116;BME280;59991;52.140;5.428;2022-08-03T01:45:51;101512.41;;;19.67;75.99
72116;BME280;59991;52.140;5.428;2022-08-03T01:46:25;101511.25;;;19.65;76.16
72116;BME280;59991;52.140;5.428;2022-08-03T01:46:58;101516.44;;;19.63;76.62
72116;BME280;59991;52.140;5.428;2022-08-03T01:47:30;101518.44;;;19.62;75.77
72116;BME280;59991;52.140;5.428;2022-08-03T01:48:03;101510.56;;;19.61;76.91
72116;BME280;59991;52.140;5.428;2022-08-03T01:48:37;101513.34;;;19.61;76.33
72116;BME280;59991;52.140;5.428;2022-08-03T01:49:10;101513.34;;;19.61;76.64
72116;BME280;59991;52.140;5.428;2022-08-03T01:49:43;101515.31;;;19.60;76.08
72116;BME280;59991;52.140;5.428;2022-08-03T01:50:20;101510.56;;;19.61;76.24
72116;BME280;59991;52.140;5.428;2022-08-03T01:50:54;101512.91;;;19.62;76.39
72116;BME280;59991;52.140;5.428;2022-08-03T01:51:27;101511.34;;;19.61;76.73
72116;BME280;59991;52.140;5.428;2022-08-03T01:52:19;101510.91;;;19.63;76.49
72116;BME280;59991;52.140;5.428;2022-08-03T01:52:52;101512.91;;;19.62;76.06
72116;BME280;59991;52.140;5.428;2022-08-03T01:53:25;101507.38;;;19.62;76.56
72116;BME280;59991;52.140;5.428;2022-08-03T01:53:59;101505.38;;;19.63;76.06
72116;BME280;59991;52.140;5.428;2022-08-03T01:54:37;101502.59;;;19.63;76.07
72116;BME280;59991;52.140;5.428;2022-08-03T01:55:11;101508.13;;;19.63;75.88
72116;BME280;59991;52.140;5.428;2022-08-03T01:56:03;101505.38;;;19.63;76.05
72116;BME280;59991;52.140;5.428;2022-08-03T01:56:56;101507.81;;;19.61;76.83
72116;BME280;59991;52.140;5.428;2022-08-03T01:57:29;101506.25;;;19.60;76.37
72116;BME280;59991;52.140;5.428;2022-08-03T01:58:02;101501.91;;;19.59;76.81
72116;BME280;59991;52.140;5.428;2022-08-03T01:58:38;101511.00;;;19.59;76.71
72116;BME280;59991;52.140;5.428;2022-08-03T01:59:11;101504.69;;;19.59;76.85
72116;BME280;59991;52.140;5.428;2022-08-03T01:59:46;101499.56;;;19.57;76.29
72116;BME280;59991;52.140;5.428;2022-08-03T02:00:18;101492.84;;;19.58;76.85
72116;BME280;59991;52.140;5.428;2022-08-03T02:00:51;101503.13;;;19.58;76.33
72116;BME280;59991;52.140;5.428;2022-08-03T02:01:24;101497.16;;;19.59;76.37
72116;BME280;59991;52.140;5.428;2022-08-03T02:02:16;101498.72;;;19.60;76.10
72116;BME280;59991;52.140;5.428;2022-08-03T02:03:08;101497.94;;;19.60;76.27
72116;BME280;59991;52.140;5.428;2022-08-03T02:04:33;101508.22;;;19.59;75.71
72116;BME280;59991;52.140;5.428;2022-08-03T02:05:08;101505.47;;;19.59;76.45
72116;BME280;59991;52.140;5.428;2022-08-03T02:05:44;101499.94;;;19.59;75.45
72116;BME280;59991;52.140;5.428;2022-08-03T02:06:18;101503.47;;;19.60;76.33
72116;BME280;59991;52.140;5.428;2022-08-03T02:07:10;101502.69;;;19.59;75.86
72116;BME280;59991;52.140;5.428;2022-08-03T02:07:44;101506.25;;;19.60;76.01
72116;BME280;59991;52.140;5.428;2022-08-03T02:08:17;101504.69;;;19.59;76.83
72116;BME280;59991;52.140;5.428;2022-08-03T02:08:49;101510.22;;;19.59;76.20
72116;BME280;59991;52.140;5.428;2022-08-03T02:09:24;101504.69;;;19.59;76.71
72116;BME280;59991;52.140;5.428;2022-08-03T02:09:57;101502.69;;;19.59;76.80
72116;BME280;59991;52.140;5.428;2022-08-03T02:10:29;101504.69;;;19.59;76.35
72116;BME280;59991;52.140;5.428;2022-08-03T02:11:06;101505.88;;;19.58;75.84
72116;BME280;59991;52.140;5.428;2022-08-03T02:12:30;101503.91;;;19.58;76.02
72116;BME280;59991;52.140;5.428;2022-08-03T02:13:04;101503.91;;;19.58;76.35
72116;BME280;59991;52.140;5.428;2022-08-03T02:13:37;101503.91;;;19.58;76.52
72116;BME280;59991;52.140;5.428;2022-08-03T02:14:09;101509.84;;;19.57;76.15
72116;BME280;59991;52.140;5.428;2022-08-03T02:14:43;101506.31;;;19.56;76.93
72116;BME280;59991;52.140;5.428;2022-08-03T02:15:16;101512.25;;;19.55;77.10
72116;BME280;59991;52.140;5.428;2022-08-03T02:15:50;101505.94;;;19.54;76.14
72116;BME280;59991;52.140;5.428;2022-08-03T02:16:23;101506.72;;;19.55;76.82
72116;BME280;59991;52.140;5.428;2022-08-03T02:16:56;101503.59;;;19.53;77.01
72116;BME280;59991;52.140;5.428;2022-08-03T02:17:28;101504.78;;;19.52;77.52
72116;BME280;59991;52.140;5.428;2022-08-03T02:18:10;101501.66;;;19.50;77.00
72116;BME280;59991;52.140;5.428;2022-08-03T02:18:44;101504.44;;;19.50;76.31
72116;BME280;59991;52.140;5.428;2022-08-03T02:19:18;101504.81;;;19.48;76.94
72116;BME280;59991;52.140;5.428;2022-08-03T02:19:50;101502.84;;;19.49;76.92
72116;BME280;59991;52.140;5.428;2022-08-03T02:20:22;101505.59;;;19.49;77.39
72116;BME280;59991;52.140;5.428;2022-08-03T02:20:55;101502.06;;;19.48;77.88
72116;BME280;59991;52.140;5.428;2022-08-03T02:21:29;101504.03;;;19.48;77.14
72116;BME280;59991;52.140;5.428;2022-08-03T02:22:23;101514.38;;;19.44;77.42
72116;BME280;59991;52.140;5.428;2022-08-03T02:22:55;101507.31;;;19.43;77.92
72116;BME280;59991;52.140;5.428;2022-08-03T02:23:26;101507.31;;;19.43;77.13
72116;BME280;59991;52.140;5.428;2022-08-03T02:23:58;101511.28;;;19.42;77.07
72116;BME280;59991;52.140;5.428;2022-08-03T02:24:48;101511.28;;;19.42;77.80
72116;BME280;59991;52.140;5.428;2022-08-03T02:25:21;101517.22;;;19.40;77.82
72116;BME280;59991;52.140;5.428;2022-08-03T02:25:57;101516.88;;;19.38;77.76
72116;BME280;59991;52.140;5.428;2022-08-03T02:26:34;101516.09;;;19.38;77.27
72116;BME280;59991;52.140;5.428;2022-08-03T02:27:20;101514.09;;;19.38;77.21
72116;BME280;59991;52.140;5.428;2022-08-03T02:27:58;101516.09;;;19.38;77.18
72116;BME280;59991;52.140;5.428;2022-08-03T02:28:34;101507.38;;;19.39;76.70
72116;BME280;59991;52.140;5.428;2022-08-03T02:29:13;101508.94;;;19.40;76.89
72116;BME280;59991;52.140;5.428;2022-08-03T02:29:48;101507.72;;;19.41;76.80
72116;BME280;59991;52.140;5.428;2022-08-03T02:30:26;101504.97;;;19.41;77.15
72116;BME280;59991;52.140;5.428;2022-08-03T02:31:03;101504.19;;;19.41;77.63
72116;BME280;59991;52.140;5.428;2022-08-03T02:31:35;101506.59;;;19.39;77.34
72116;BME280;59991;52.140;5.428;2022-08-03T02:32:11;101503.03;;;19.38;77.64
72116;BME280;59991;52.140;5.428;2022-08-03T02:32:49;101502.63;;;19.40;77.35
72116;BME280;59991;52.140;5.428;2022-08-03T02:33:32;101497.50;;;19.38;77.27
72116;BME280;59991;52.140;5.428;2022-08-03T02:34:12;101501.47;;;19.37;76.98
72116;BME280;59991;52.140;5.428;2022-08-03T02:34:47;101497.94;;;19.37;77.28
72116;BME280;59991;52.140;5.428;2022-08-03T02:35:23;101505.44;;;19.36;78.07
72116;BME280;59991;52.140;5.428;2022-08-03T02:36:14;101497.97;;;19.33;77.67
72116;BME280;59991;52.140;5.428;2022-08-03T02:36:51;101495.63;;;19.31;77.28
72116;BME280;59991;52.140;5.428;2022-08-03T02:37:28;101492.88;;;19.31;77.53
72116;BME280;59991;52.140;5.428;2022-08-03T02:38:03;101488.91;;;19.32;77.33
72116;BME280;59991;52.140;5.428;2022-08-03T02:38:38;101490.09;;;19.31;77.46
72116;BME280;59991;52.140;5.428;2022-08-03T02:39:30;101492.09;;;19.31;77.88
72116;BME280;59991;52.140;5.428;2022-08-03T02:40:04;101492.09;;;19.31;77.65
72116;BME280;59991;52.140;5.428;2022-08-03T02:40:39;101490.09;;;19.31;77.74
72116;BME280;59991;52.140;5.428;2022-08-03T02:41:17;101490.88;;;19.32;78.00
72116;BME280;59991;52.140;5.428;2022-08-03T02:41:53;101490.09;;;19.31;78.01
72116;BME280;59991;52.140;5.428;2022-08-03T02:42:34;101494.44;;;19.32;77.26
72116;BME280;59991;52.140;5.428;2022-08-03T02:43:09;101496.41;;;19.32;78.26
72116;BME280;59991;52.140;5.428;2022-08-03T02:43:44;101494.84;;;19.31;77.86
72116;BME280;59991;52.140;5.428;2022-08-03T02:44:38;101486.19;;;19.29;77.88
72116;BME280;59991;52.140;5.428;2022-08-03T02:45:11;101494.13;;;19.27;77.15
72116;BME280;59991;52.140;5.428;2022-08-03T02:45:46;101486.63;;;19.27;77.42
72116;BME280;59991;52.140;5.428;2022-08-03T02:47:31;101490.56;;;19.26;77.30
72116;BME280;59991;52.140;5.428;2022-08-03T02:48:27;101485.47;;;19.25;77.43
72116;BME280;59991;52.140;5.428;2022-08-03T02:49:00;101484.25;;;19.26;78.18
72116;BME280;59991;52.140;5.428;2022-08-03T02:49:54;101485.47;;;19.25;77.92
72116;BME280;59991;52.140;5.428;2022-08-03T02:50:28;101482.69;;;19.25;77.79
72116;BME280;59991;52.140;5.428;2022-08-03T02:51:19;101485.47;;;19.25;77.49
72116;BME280;59991;52.140;5.428;2022-08-03T02:51:53;101479.16;;;19.24;77.84
72116;BME280;59991;52.140;5.428;2022-08-03T02:52:27;101479.94;;;19.25;77.67
72116;BME280;59991;52.140;5.428;2022-08-03T02:53:00;101482.28;;;19.26;77.92
72116;BME280;59991;52.140;5.428;2022-08-03T02:53:33;101475.97;;;19.26;78.01
72116;BME280;59991;52.140;5.428;2022-08-03T02:54:07;101480.72;;;19.25;77.94
72116;BME280;59991;52.140;5.428;2022-08-03T02:54:40;101480.72;;;19.25;77.33
72116;BME280;59991;52.140;5.428;2022-08-03T02:55:13;101477.16;;;19.25;77.73
72116;BME280;59991;52.140;5.428;2022-08-03T02:55:46;101475.19;;;19.25;77.18
72116;BME280;59991;52.140;5.428;2022-08-03T02:56:20;101485.47;;;19.25;77.26
72116;BME280;59991;52.140;5.428;2022-08-03T02:56:53;101480.72;;;19.25;77.23
72116;BME280;59991;52.140;5.428;2022-08-03T02:57:29;101475.19;;;19.25;78.02
72116;BME280;59991;52.140;5.428;2022-08-03T02:58:02;101481.50;;;19.26;76.96
72116;BME280;59991;52.140;5.428;2022-08-03T02:58:36;101478.72;;;19.26;77.63
72116;BME280;59991;52.140;5.428;2022-08-03T02:59:09;101477.16;;;19.25;77.11
72116;BME280;59991;52.140;5.428;2022-08-03T02:59:42;101480.72;;;19.25;77.88
72116;BME280;59991;52.140;5.428;2022-08-03T03:00:15;101479.53;;;19.26;77.38
72116;BME280;59991;52.140;5.428;2022-08-03T03:00:59;101470.44;;;19.26;77.12
72116;BME280;59991;52.140;5.428;2022-08-03T03:01:32;101470.44;;;19.26;77.40
72116;BME280;59991;52.140;5.428;2022-08-03T03:02:04;101479.53;;;19.26;77.49
72116;BME280;59991;52.140;5.428;2022-08-03T03:02:36;101483.06;;;19.27;76.97
72116;BME280;59991;52.140;5.428;2022-08-03T03:03:28;101474.00;;;19.26;77.09
72116;BME280;59991;52.140;5.428;2022-08-03T03:04:07;101476.38;;;19.24;76.76
72116;BME280;59991;52.140;5.428;2022-08-03T03:04:43;101480.72;;;19.25;77.65
72116;BME280;59991;52.140;5.428;2022-08-03T03:05:36;101479.94;;;19.25;76.79
72116;BME280;59991;52.140;5.428;2022-08-03T03:06:26;101478.41;;;19.24;78.12
72116;BME280;59991;52.140;5.428;2022-08-03T03:07:16;101482.38;;;19.23;77.24
72116;BME280;59991;52.140;5.428;2022-08-03T03:07:48;101482.38;;;19.23;78.31
72116;BME280;59991;52.140;5.428;2022-08-03T03:08:23;101475.28;;;19.22;77.50
72116;BME280;59991;52.140;5.428;2022-08-03T03:08:59;101482.78;;;19.21;78.28
72116;BME280;59991;52.140;5.428;2022-08-03T03:09:31;101479.25;;;19.21;78.16
72116;BME280;59991;52.140;5.428;2022-08-03T03:10:13;101479.66;;;19.19;77.99
72116;BME280;59991;52.140;5.428;2022-08-03T03:10:45;101472.97;;;19.17;78.27
72116;BME280;59991;52.140;5.428;2022-08-03T03:11:18;101476.53;;;19.17;77.73
72116;BME280;59991;52.140;5.428;2022-08-03T03:11:52;101475.75;;;19.17;78.02
72116;BME280;59991;52.140;5.428;2022-08-03T03:12:24;101482.06;;;19.17;77.42
72116;BME280;59991;52.140;5.428;2022-08-03T03:12:57;101484.81;;;19.17;78.04
72116;BME280;59991;52.140;5.428;2022-08-03T03:13:30;101479.28;;;19.17;77.56
72116;BME280;59991;52.140;5.428;2022-08-03T03:14:02;101476.53;;;19.17;78.21
72116;BME280;59991;52.140;5.428;2022-08-03T03:14:35;101478.50;;;19.17;77.97
72116;BME280;59991;52.140;5.428;2022-08-03T03:15:07;101478.50;;;19.17;77.28
72116;BME280;59991;52.140;5.428;2022-08-03T03:15:40;101477.31;;;19.18;77.67
72116;BME280;59991;52.140;5.428;2022-08-03T03:16:13;101476.13;;;19.19;77.04
72116;BME280;59991;52.140;5.428;2022-08-03T03:16:46;101477.69;;;19.20;77.16
72116;BME280;59991;52.140;5.428;2022-08-03T03:17:22;101476.91;;;19.19;77.35
72116;BME280;59991;52.140;5.428;2022-08-03T03:17:55;101476.91;;;19.19;78.13
72116;BME280;59991;52.140;5.428;2022-08-03T03:18:46;101480.84;;;19.18;78.24
72116;BME280;59991;52.140;5.428;2022-08-03T03:19:18;101479.28;;;19.17;77.89
72116;BME280;59991;52.140;5.428;2022-08-03T03:20:09;101476.94;;;19.16;78.15
72116;BME280;59991;52.140;5.428;2022-08-03T03:21:31;101476.16;;;19.15;77.63
72116;BME280;59991;52.140;5.428;2022-08-03T03:22:04;101477.38;;;19.14;78.19
72116;BME280;59991;52.140;5.428;2022-08-03T03:22:38;101479.34;;;19.14;78.20
72116;BME280;59991;52.140;5.428;2022-08-03T03:23:16;101478.56;;;19.13;78.32
72116;BME280;59991;52.140;5.428;2022-08-03T03:23:48;101478.56;;;19.13;78.13
72116;BME280;59991;52.140;5.428;2022-08-03T03:24:19;101473.09;;;19.10;77.89
72116;BME280;59991;52.140;5.428;2022-08-03T03:24:51;101473.88;;;19.10;78.12
72116;BME280;59991;52.140;5.428;2022-08-03T03:25:24;101474.28;;;19.09;78.15
72116;BME280;59991;52.140;5.428;2022-08-03T03:25:56;101472.31;;;19.09;78.08
72116;BME280;59991;52.140;5.428;2022-08-03T03:26:29;101471.09;;;19.10;77.71
72116;BME280;59991;52.140;5.428;2022-08-03T03:27:01;101470.31;;;19.10;77.85
72116;BME280;59991;52.140;5.428;2022-08-03T03:27:34;101464.00;;;19.09;78.58
72116;BME280;59991;52.140;5.428;2022-08-03T03:28:05;101476.28;;;19.08;78.46
72116;BME280;59991;52.140;5.428;2022-08-03T03:28:37;101470.75;;;19.08;78.56